Time;durP1;ratioP1;P1;durP2;ratioP2;P2;SDS_P1;SDS_P2;PMS_P1;PMS_P2;Temp;Humidity;BMP_temperature;BMP_pressure;BME280_temperature;BME280_humidity;BME280_pressure;Samples;Min_cycle;Max_cycle;Signal;HPM_P1;HPM_P2
2021/12/31 00:02:25;;;;;;;0.30;0.30;;;;;;;-142.18;100.00;-13812.19;5051313;27;20061;-72
2021/12/31 00:04:52;;;;;;;0.20;0.20;;;;;;;-142.18;100.00;-13812.19;5050105;27;20144;-73
2021/12/31 00:07:19;;;;;;;0.20;0.20;;;;;;;-142.18;100.00;-13812.19;5049580;27;20089;-72
2021/12/31 00:09:46;;;;;;;0.45;0.35;;;;;;;-142.18;100.00;-13812.19;5050794;27;20060;-73
2021/12/31 00:12:13;;;;;;;0.20;0.20;;;;;;;-142.18;100.00;-13812.19;5050853;27;20370;-72
2021/12/31 00:14:40;;;;;;;0.40;0.40;;;;;;;-142.18;100.00;-13812.19;5050205;27;20084;-75
2021/12/31 00:17:07;;;;;;;0.20;0.20;;;;;;;-142.18;100.00;-13812.19;5050602;27;20058;-72
2021/12/31 00:19:40;;;;;;;0.30;0.30;;;;;;;-142.18;100.00;-13812.19;5033123;28;20058;-73
2021/12/31 00:25:00;;;;;;;0.40;0.40;;;;;;;-142.18;100.00;-13812.19;5027581;27;20061;-72
2021/12/31 00:27:26;;;;;;;0.25;0.25;;;;;;;-142.18;100.00;-13812.19;5051135;27;20064;-72
2021/12/31 00:29:53;;;;;;;0.30;0.30;;;;;;;-142.18;100.00;-13812.19;5050936;27;20422;-73
2021/12/31 00:32:20;;;;;;;0.20;0.20;;;;;;;-142.18;100.00;-12284.69;5050617;28;20144;-73
2021/12/31 00:34:46;;;;;;;1.00;0.95;;;;;;;-142.18;100.00;-13812.19;5044505;27;20049;-72
2021/12/31 00:37:24;;;;;;;0.20;0.20;;;;;;;-142.18;100.00;-13812.19;5014207;28;20062;-72
2021/12/31 00:39:51;;;;;;;0.20;0.20;;;;;;;-142.18;100.00;-13812.19;5038648;27;20461;-72
2021/12/31 00:42:17;;;;;;;4.10;2.83;;;;;;;-142.18;100.00;-13302.09;5071017;27;20071;-73
2021/12/31 00:44:44;;;;;;;3.83;2.55;;;;;;;-142.18;100.00;-13812.19;5046169;27;20083;-72
2021/12/31 00:47:11;;;;;;;3.88;2.80;;;;;;;-142.18;100.00;-13810.69;5031789;27;20058;-72
2021/12/31 00:49:37;;;;;;;5.95;2.50;;;;;;;-142.18;100.00;-13810.69;5030906;27;20064;-73
2021/12/31 00:52:04;;;;;;;4.10;2.50;;;;;;;-142.18;100.00;-5969.56;5030709;27;20065;-72
2021/12/31 00:54:31;;;;;;;2.45;1.88;;;;;;;-142.18;100.00;-12793.41;5013306;28;20072;-73
2021/12/31 00:57:02;;;;;;;5.38;2.10;;;;;;;-142.18;100.00;-11012.56;5030694;28;20068;-72
2021/12/31 00:59:33;;;;;;;2.85;1.67;;;;;;;-142.18;100.00;-9033.94;5030704;28;20482;-72
2021/12/31 01:02:03;;;;;;;2.88;1.50;;;;;;;-142.18;100.00;-3111.91;5030515;28;20061;-72
2021/12/31 01:04:31;;;;;;;2.75;1.58;;;;;;;-142.18;100.00;2045.19;5013505;28;20069;-73
2021/12/31 01:06:59;;;;;;;2.28;1.83;;;;;;;-142.18;100.00;2942.97;5013921;28;20088;-72
2021/12/31 01:09:26;;;;;;;3.15;1.60;;;;;;;-142.18;100.00;-1493.94;5031385;27;20068;-72
2021/12/31 01:11:52;;;;;;;5.10;1.77;;;;;;;-142.18;100.00;8591.69;5030799;28;20061;-72
2021/12/31 01:14:33;;;;;;;2.78;1.60;;;;;;;-142.18;100.00;2972.91;5030703;27;20068;-73
2021/12/31 01:17:02;;;;;;;3.95;1.80;;;;;;;-142.18;100.00;12810.16;5030124;28;20061;-72
2021/12/31 01:19:45;;;;;;;5.03;1.95;;;;;;;-142.18;100.00;17395.72;5017188;28;20769;-72
2021/12/31 01:22:18;;;;;;;1.95;1.80;;;;;;;-142.18;100.00;15525.63;5051276;28;20147;-72
2021/12/31 01:24:46;;;;;;;3.47;1.90;;;;;;;-142.18;100.00;17676.09;5070576;28;20057;-73
2021/12/31 01:27:14;;;;;;;2.15;1.90;;;;;;;-142.18;100.00;16172.25;5069222;28;20468;-73
2021/12/31 01:29:41;;;;;;;2.80;2.00;;;;;;;-142.18;100.00;18499.38;5070618;28;20056;-73
2021/12/31 01:32:08;;;;;;;2.78;2.05;;;;;;;-142.18;100.00;22255.34;5030334;28;20776;-73
2021/12/31 01:34:36;;;;;;;3.42;1.88;;;;;;;-142.18;100.00;29253.84;5029909;28;20064;-73
2021/12/31 01:37:03;;;;;;;2.38;2.08;;;;;;;-142.18;100.00;24710.53;5029259;27;20068;-72
2021/12/31 01:39:30;;;;;;;3.28;2.15;;;;;;;-142.18;100.00;30770.81;5029373;27;20053;-72
2021/12/31 01:41:59;;;;;;;4.10;1.88;;;;;;;-142.18;100.00;33816.53;5028687;28;20054;-72
2021/12/31 01:44:33;;;;;;;3.38;1.90;;;;;;;-142.18;100.00;37275.25;5029213;27;20058;-73
2021/12/31 01:47:04;;;;;;;2.30;1.83;;;;;;;-142.18;100.00;40142.72;5030203;27;20652;-72
2021/12/31 01:49:37;;;;;;;2.60;1.90;;;;;;;-142.18;100.00;40295.84;5037587;28;20069;-72
2021/12/31 01:52:05;;;;;;;2.38;1.70;;;;;;;-142.18;100.00;39792.25;5013116;28;20458;-72
2021/12/31 01:54:34;;;;;;;4.20;1.90;;;;;;;-142.18;100.00;44459.97;5029480;28;20908;-73
2021/12/31 01:57:02;;;;;;;3.78;1.75;;;;;;;-142.18;100.00;43516.31;5012936;28;20100;-73
2021/12/31 01:59:30;;;;;;;3.15;1.77;;;;;;;-142.18;100.00;40751.13;5029511;27;20065;-72
2021/12/31 02:01:58;;;;;;;3.42;1.80;;;;;;;-142.18;100.00;45234.41;5011522;28;20153;-72
2021/12/31 02:04:24;;;;;;;2.88;1.88;;;;;;;-142.18;100.00;49129.19;5028521;28;20058;-72
2021/12/31 02:06:52;;;;;;;4.82;1.92;;;;;;;-142.18;100.00;53345.09;5029123;28;20068;-72
2021/12/31 02:09:19;;;;;;;4.22;2.33;;;;;;;-142.18;100.00;47889.72;5028419;28;20072;-73
2021/12/31 02:11:48;;;;;;;3.97;1.80;;;;;;;-142.18;100.00;50009.56;5039507;28;20054;-72
2021/12/31 02:14:15;;;;;;;3.45;2.10;;;;;;;-142.18;100.00;53355.19;5032116;28;20387;-73
2021/12/31 02:16:42;;;;;;;3.25;1.95;;;;;;;-142.18;100.00;50437.72;5050853;28;20148;-72
2021/12/31 02:19:17;;;;;;;4.32;1.60;;;;;;;-142.18;100.00;55389.00;5031773;28;20057;-72
2021/12/31 02:21:45;;;;;;;4.40;2.30;;;;;;;-142.18;100.00;50154.97;5048561;28;20091;-72
2021/12/31 02:24:13;;;;;;;3.03;1.60;;;;;;;-142.18;100.00;55953.25;5048929;28;20061;-72
2021/12/31 02:26:45;;;;;;;3.38;1.70;;;;;;;-142.18;100.00;52732.72;5049038;28;20140;-72
2021/12/31 02:29:12;;;;;;;3.17;1.70;;;;;;;-142.18;100.00;51257.78;5030514;28;20466;-72
2021/12/31 02:31:39;;;;;;;2.92;1.73;;;;;;;-142.18;100.00;52635.72;5049614;28;20061;-72
2021/12/31 02:34:05;;;;;;;2.55;1.77;;;;;;;-142.18;100.00;52239.69;5049861;28;20651;-72
2021/12/31 02:36:32;;;;;;;2.83;1.92;;;;;;;-142.18;100.00;55255.56;5049111;28;20061;-72
2021/12/31 02:38:59;;;;;;;2.80;1.60;;;;;;;-142.18;100.00;53860.53;5046290;28;20065;-72
2021/12/31 02:41:27;;;;;;;4.22;1.80;;;;;;;-142.18;100.00;53941.38;5029368;28;20054;-72
2021/12/31 02:43:55;;;;;;;3.75;1.65;;;;;;;-142.18;100.00;55643.81;5045710;28;20084;-73
2021/12/31 02:46:22;;;;;;;2.00;1.55;;;;;;;-142.18;100.00;53205.63;5049836;28;20061;-72
2021/12/31 02:48:55;;;;;;;3.85;1.60;;;;;;;-142.18;100.00;56375.97;5049064;28;20450;-73
2021/12/31 02:51:27;;;;;;;4.78;1.90;;;;;;;-142.18;100.00;55987.63;5041807;28;20058;-72
2021/12/31 02:53:56;;;;;;;3.17;1.60;;;;;;;-142.18;100.00;55575.06;5050033;28;20058;-72
2021/12/31 02:56:24;;;;;;;4.28;1.80;;;;;;;-142.18;100.00;56339.56;5049955;28;20064;-72
2021/12/31 02:58:51;;;;;;;3.20;1.73;;;;;;;-142.18;100.00;54907.75;5048765;28;20443;-72
2021/12/31 03:01:19;;;;;;;2.25;1.50;;;;;;;-142.18;100.00;56598.47;5049800;28;20061;-73
2021/12/31 03:03:48;;;;;;;3.28;1.63;;;;;;;-142.18;100.00;56768.41;5049054;27;20089;-72
2021/12/31 03:06:16;;;;;;;2.47;1.67;;;;;;;-142.18;100.00;54893.59;5049510;27;20065;-72
2021/12/31 03:08:48;;;;;;;3.92;1.60;;;;;;;-142.18;100.00;57237.75;5048849;28;20072;-72
2021/12/31 03:11:21;;;;;;;3.85;1.60;;;;;;;-142.18;100.00;57551.34;5048995;27;20057;-73
2021/12/31 03:13:52;;;;;;;5.60;1.65;;;;;;;-142.18;100.00;55789.44;5048527;27;20061;-73
2021/12/31 03:16:23;;;;;;;3.97;1.60;;;;;;;-142.18;100.00;55967.41;5031733;27;20655;-73
2021/12/31 03:18:51;;;;;;;4.20;2.08;;;;;;;-142.18;100.00;55300.03;5049348;27;20069;-73
2021/12/31 03:21:21;;;;;;;2.97;1.70;;;;;;;-142.18;100.00;57213.47;5032093;28;20081;-72
2021/12/31 03:23:54;;;;;;;4.00;1.77;;;;;;;-142.18;100.00;57411.72;5048805;27;20435;-73
2021/12/31 03:26:22;;;;;;;3.90;1.83;;;;;;;-142.18;100.00;58706.81;5049006;27;20064;-74
2021/12/31 03:28:49;;;;;;;3.85;1.38;;;;;;;-142.18;100.00;56442.72;5048249;27;20083;-73
2021/12/31 03:31:16;;;;;;;3.97;1.70;;;;;;;-142.18;100.00;57668.69;5048994;27;20132;-73
2021/12/31 03:33:43;;;;;;;2.80;1.60;;;;;;;-142.18;100.00;56456.88;5048860;27;20097;-73
2021/12/31 03:36:10;;;;;;;3.80;1.95;;;;;;;-142.18;100.00;57007.09;5049359;27;20072;-73
2021/12/31 03:38:36;;;;;;;3.80;1.83;;;;;;;-142.18;100.00;58014.69;5048789;27;20061;-73
2021/12/31 03:41:04;;;;;;;2.22;1.48;;;;;;;-142.18;100.00;57913.53;5044405;27;20064;-73
2021/12/31 03:43:30;;;;;;;4.13;1.67;;;;;;;-142.18;100.00;57431.97;5052139;28;20061;-73
2021/12/31 03:45:57;;;;;;;3.17;1.60;;;;;;;-142.18;100.00;57035.44;5052390;27;20084;-73
2021/12/31 03:48:24;;;;;;;4.25;1.77;;;;;;;-142.18;100.00;55939.09;5051670;27;20142;-73
2021/12/31 03:50:51;;;;;;;3.47;1.70;;;;;;;-142.18;100.00;56837.19;5052629;27;20144;-73
2021/12/31 03:53:17;;;;;;;3.95;1.58;;;;;;;-142.18;100.00;57015.19;5052526;27;20061;-73
2021/12/31 03:55:44;;;;;;;3.25;1.50;;;;;;;-142.18;100.00;56630.84;5034500;28;20071;-73
2021/12/31 03:58:11;;;;;;;3.25;1.63;;;;;;;-142.18;100.00;56319.34;5034166;28;20144;-73
2021/12/31 04:00:39;;;;;;;2.53;1.50;;;;;;;-142.18;100.00;57083.97;5051898;27;20061;-73
2021/12/31 04:03:11;;;;;;;3.35;1.30;;;;;;;-142.18;100.00;56210.13;5034022;27;20054;-73
2021/12/31 04:05:41;;;;;;;2.92;1.25;;;;;;;-142.18;100.00;56189.88;5051966;28;20083;-73
2021/12/31 04:08:08;;;;;;;3.17;1.35;;;;;;;-142.18;100.00;55457.78;5051877;28;20217;-73
2021/12/31 04:10:35;;;;;;;1.67;1.30;;;;;;;-142.18;100.00;55629.66;5051401;28;20068;-73
2021/12/31 04:13:03;;;;;;;3.92;1.60;;;;;;;-142.18;100.00;56299.09;5051674;27;20069;-73
2021/12/31 04:15:29;;;;;;;1.80;1.30;;;;;;;-142.18;100.00;55870.31;5034476;28;20061;-73
2021/12/31 04:17:56;;;;;;;2.42;1.27;;;;;;;-142.18;100.00;56926.19;5052324;28;20057;-73
2021/12/31 04:20:34;;;;;;;2.50;1.48;;;;;;;-142.18;100.00;56814.94;5051406;28;20058;-73
2021/12/31 04:23:07;;;;;;;3.40;1.50;;;;;;;-142.18;100.00;56999.00;5033977;28;20149;-73
2021/12/31 04:25:34;;;;;;;2.83;1.57;;;;;;;-142.18;100.00;58463.94;5052040;28;20057;-73
2021/12/31 04:28:00;;;;;;;3.65;1.60;;;;;;;-142.18;100.00;58463.94;5051866;28;20283;-73
2021/12/31 04:30:32;;;;;;;4.15;1.30;;;;;;;-142.18;100.00;57943.88;5052422;28;20053;-73
2021/12/31 04:33:00;;;;;;;4.75;1.90;;;;;;;-142.18;100.00;57399.59;5052062;28;20144;-73
2021/12/31 04:35:27;;;;;;;3.78;1.92;;;;;;;-142.18;100.00;56762.31;5034639;28;20057;-73
2021/12/31 04:37:54;;;;;;;4.15;1.85;;;;;;;-142.18;100.00;57177.03;5050816;28;20499;-73
2021/12/31 04:40:20;;;;;;;4.07;1.58;;;;;;;-142.18;100.00;57245.84;5051019;28;20053;-73
2021/12/31 04:42:48;;;;;;;2.17;1.33;;;;;;;-142.18;100.00;55639.78;5050914;28;20057;-73
2021/12/31 04:45:15;;;;;;;3.00;1.50;;;;;;;-142.18;100.00;55304.09;5051598;28;20403;-73
2021/12/31 04:47:42;;;;;;;5.57;1.50;;;;;;;-142.18;100.00;55449.69;5033410;28;20088;-73
2021/12/31 04:50:09;;;;;;;5.07;1.70;;;;;;;-142.18;100.00;55928.97;5051148;27;20062;-73
2021/12/31 04:52:35;;;;;;;6.07;1.55;;;;;;;-142.18;100.00;55437.53;5050252;28;20765;-73
2021/12/31 04:55:03;;;;;;;2.75;1.55;;;;;;;-142.18;100.00;55322.28;5051679;28;20152;-73
2021/12/31 04:57:30;;;;;;;3.20;1.67;;;;;;;-142.18;100.00;55744.94;5050970;28;20144;-73
2021/12/31 04:59:57;;;;;;;4.45;1.77;;;;;;;-142.18;100.00;55922.91;5050740;28;20060;-73
2021/12/31 05:02:23;;;;;;;4.60;1.33;;;;;;;-142.18;100.00;56117.06;5049717;28;20061;-73
2021/12/31 05:04:50;;;;;;;3.75;1.42;;;;;;;-142.18;100.00;55328.34;5033239;27;20117;-73
2021/12/31 05:07:17;;;;;;;3.50;1.63;;;;;;;-142.18;100.00;55536.63;5033750;28;20447;-73
2021/12/31 05:09:44;;;;;;;2.95;1.45;;;;;;;-142.18;100.00;54988.63;5051402;27;20057;-73
2021/12/31 05:12:15;;;;;;;2.58;1.40;;;;;;;-142.18;100.00;55093.78;5051114;28;20061;-73
2021/12/31 05:14:42;;;;;;;2.22;1.35;;;;;;;-142.18;100.00;54701.53;5034613;28;20062;-73
2021/12/31 05:17:09;;;;;;;3.00;1.45;;;;;;;-142.18;100.00;55079.63;5051360;27;20435;-73
2021/12/31 05:19:36;;;;;;;2.47;1.60;;;;;;;-142.18;100.00;53882.75;5049645;27;20447;-73
2021/12/31 05:22:03;;;;;;;3.00;1.38;;;;;;;-142.18;100.00;53476.47;5050200;27;20057;-72
2021/12/31 05:24:30;;;;;;;2.00;1.27;;;;;;;-142.18;100.00;53783.72;5032882;28;20057;-73
2021/12/31 05:26:58;;;;;;;2.72;1.35;;;;;;;-142.18;100.00;54183.97;5049661;27;20062;-73
2021/12/31 05:29:27;;;;;;;4.22;1.38;;;;;;;-142.18;100.00;52433.66;5050163;27;20088;-73
2021/12/31 05:31:53;;;;;;;1.92;1.30;;;;;;;-142.18;100.00;52609.47;5049650;28;20431;-73
2021/12/31 05:34:21;;;;;;;3.55;1.80;;;;;;;-142.18;100.00;53233.94;5050621;27;20152;-73
2021/12/31 05:36:51;;;;;;;2.65;1.65;;;;;;;-142.18;100.00;53185.44;5033155;28;20061;-73
2021/12/31 05:39:17;;;;;;;3.33;1.55;;;;;;;-142.18;100.00;52265.94;5050448;27;20053;-73
2021/12/31 05:41:44;;;;;;;2.13;1.38;;;;;;;-142.18;100.00;51960.84;5037372;28;20080;-73
2021/12/31 05:44:11;;;;;;;2.17;1.33;;;;;;;-142.18;100.00;51839.63;5030987;28;20064;-73
2021/12/31 05:46:39;;;;;;;1.90;1.30;;;;;;;-142.18;100.00;52342.72;5025801;27;20497;-73
2021/12/31 05:49:06;;;;;;;2.58;1.33;;;;;;;-142.18;100.00;53520.94;5032914;28;20073;-73
2021/12/31 05:51:33;;;;;;;1.20;1.10;;;;;;;-142.18;100.00;52894.41;5049925;27;20065;-73
2021/12/31 05:54:00;;;;;;;2.97;1.40;;;;;;;-142.18;100.00;53084.38;5051025;27;20068;-73
2021/12/31 05:56:27;;;;;;;1.90;1.40;;;;;;;-142.18;100.00;53391.59;5050383;27;20711;-73
2021/12/31 05:58:54;;;;;;;3.90;1.60;;;;;;;-142.18;100.00;53229.88;5049150;27;20752;-73
2021/12/31 06:01:20;;;;;;;4.78;1.58;;;;;;;-142.18;100.00;52934.81;5048857;27;20068;-73
2021/12/31 06:03:47;;;;;;;2.75;1.23;;;;;;;-142.18;100.00;52211.38;5031426;27;20065;-74
2021/12/31 06:06:14;;;;;;;1.73;1.20;;;;;;;-142.18;100.00;51940.63;5049549;27;20075;-73
2021/12/31 06:08:41;;;;;;;3.47;1.48;;;;;;;-142.18;100.00;52162.91;5049830;27;20426;-73
2021/12/31 06:11:09;;;;;;;3.42;1.67;;;;;;;-142.18;100.00;51779.00;5050053;27;20057;-74
2021/12/31 06:13:37;;;;;;;1.90;1.63;;;;;;;-142.18;100.00;52427.59;5050778;27;20141;-73
2021/12/31 06:16:07;;;;;;;4.60;1.73;;;;;;;-142.18;100.00;52314.44;5050018;27;20088;-73
2021/12/31 06:18:34;;;;;;;2.85;1.70;;;;;;;-142.18;100.00;51645.66;5048515;27;20128;-74
2021/12/31 06:21:01;;;;;;;1.65;1.48;;;;;;;-142.18;100.00;51661.81;5048554;27;20056;-73
2021/12/31 06:23:28;;;;;;;2.65;1.40;;;;;;;-142.18;100.00;51823.47;5048379;27;20203;-73
2021/12/31 06:25:54;;;;;;;1.60;1.20;;;;;;;-142.18;100.00;51368.91;5047642;27;20057;-73
2021/12/31 06:28:21;;;;;;;2.75;1.80;;;;;;;-142.18;100.00;51273.94;5031536;28;20229;-73
2021/12/31 06:30:49;;;;;;;6.15;1.50;;;;;;;-142.18;100.00;51348.69;5047950;28;20735;-73
2021/12/31 06:33:16;;;;;;;1.85;1.40;;;;;;;-142.18;100.00;51649.72;5034420;28;20058;-73
2021/12/31 06:35:42;;;;;;;2.42;1.38;;;;;;;-142.18;100.00;51520.41;5029630;27;20340;-73
2021/12/31 06:38:09;;;;;;;4.72;2.20;;;;;;;-142.18;100.00;51296.16;5029154;28;20144;-73
2021/12/31 06:40:36;;;;;;;5.18;3.05;;;;;;;-142.18;100.00;51170.94;5010211;28;20846;-73
2021/12/31 06:43:03;;;;;;;5.13;3.75;;;;;;;-142.18;100.00;51164.88;5027348;28;20062;-74
2021/12/31 06:45:30;;;;;;;5.30;3.67;;;;;;;-142.18;100.00;50956.81;5010317;28;20069;-74
2021/12/31 06:47:57;;;;;;;4.68;2.70;;;;;;;-142.18;100.00;50538.69;5011650;28;20182;-73
2021/12/31 06:50:28;;;;;;;7.55;3.58;;;;;;;-142.18;100.00;50542.75;5011755;28;20466;-73
2021/12/31 06:52:55;;;;;;;3.00;2.10;;;;;;;-142.18;100.00;50526.59;5029259;28;20661;-73
2021/12/31 06:55:22;;;;;;;5.38;3.60;;;;;;;-142.18;100.00;50922.47;5029309;27;20062;-74
2021/12/31 06:57:49;;;;;;;4.13;2.10;;;;;;;-142.18;100.00;50805.31;5030034;28;20153;-73
2021/12/31 07:00:17;;;;;;;2.50;1.63;;;;;;;-142.18;100.00;50702.31;5010974;28;20054;-73
2021/12/31 07:02:44;;;;;;;4.43;2.10;;;;;;;-142.18;100.00;50492.25;5010609;28;20855;-74
2021/12/31 07:05:11;;;;;;;4.50;1.90;;;;;;;-142.18;100.00;50760.88;5027966;28;20466;-73
2021/12/31 07:07:38;;;;;;;4.45;2.85;;;;;;;-142.18;100.00;50526.59;5029239;28;20058;-73
2021/12/31 07:10:06;;;;;;;5.25;2.58;;;;;;;-142.18;100.00;50241.81;5011753;28;20054;-73
2021/12/31 07:12:46;;;;;;;9.07;4.50;;;;;;;-142.18;100.00;50288.25;5001944;28;20455;-73
2021/12/31 07:15:13;;;;;;;4.35;2.10;;;;;;;-142.18;100.00;50278.16;5029458;28;20053;-73
2021/12/31 07:17:40;;;;;;;4.72;2.63;;;;;;;-142.18;100.00;50348.84;5014288;28;20056;-73
2021/12/31 07:20:08;;;;;;;7.72;2.17;;;;;;;-142.18;100.00;50326.63;5014158;28;20062;-73
2021/12/31 07:22:34;;;;;;;3.58;2.05;;;;;;;-142.18;100.00;50320.56;5013243;28;20810;-73
2021/12/31 07:25:01;;;;;;;5.32;2.25;;;;;;;-142.18;100.00;50128.72;5029762;28;20069;-73
2021/12/31 07:27:31;;;;;;;3.65;2.50;;;;;;;-142.18;100.00;50219.59;5029396;28;20062;-73
2021/12/31 07:29:59;;;;;;;4.70;2.00;;;;;;;-142.18;100.00;50126.69;5012232;28;20072;-74
2021/12/31 07:32:26;;;;;;;2.25;2.05;;;;;;;-142.18;100.00;50152.94;5013528;28;20374;-73
2021/12/31 07:34:59;;;;;;;3.92;2.25;;;;;;;-142.18;100.00;50633.63;5019085;28;20053;-73
2021/12/31 07:37:37;;;;;;;3.90;2.30;;;;;;;-142.18;100.00;50278.16;5034368;28;20058;-73
2021/12/31 07:40:06;;;;;;;2.60;1.70;;;;;;;-142.18;100.00;50435.69;5029969;28;20086;-73
2021/12/31 07:42:33;;;;;;;2.72;1.73;;;;;;;-142.18;100.00;50399.34;5031080;28;20137;-74
2021/12/31 07:45:00;;;;;;;2.47;1.50;;;;;;;-142.18;100.00;50365.00;5031258;28;20145;-73
2021/12/31 07:47:27;;;;;;;2.50;1.40;;;;;;;-142.18;100.00;50704.31;5014633;28;20790;-73
2021/12/31 07:49:53;;;;;;;1.60;1.30;;;;;;;-142.18;100.00;50649.78;5030829;28;20073;-72
2021/12/31 07:52:20;;;;;;;2.08;1.30;;;;;;;-142.18;100.00;50710.38;5030672;28;20062;-73
2021/12/31 07:54:47;;;;;;;1.60;1.50;;;;;;;-142.18;100.00;50809.34;5029655;28;20086;-73
2021/12/31 07:57:14;;;;;;;3.78;1.30;;;;;;;-142.18;100.00;50326.63;5030715;28;20747;-73
2021/12/31 07:59:40;;;;;;;1.45;1.30;;;;;;;-142.18;100.00;50282.19;5030147;28;20128;-73
2021/12/31 08:02:07;;;;;;;2.83;1.73;;;;;;;-142.18;100.00;50255.94;5030232;28;20076;-73
2021/12/31 08:04:34;;;;;;;4.22;1.55;;;;;;;-142.18;100.00;50288.25;5027833;28;20061;-73
2021/12/31 08:07:01;;;;;;;3.13;1.60;;;;;;;-142.18;100.00;50243.84;5011585;28;20058;-73
2021/12/31 08:09:27;;;;;;;2.08;1.40;;;;;;;-142.18;100.00;49989.38;5028733;28;20089;-74
2021/12/31 08:11:54;;;;;;;2.85;1.73;;;;;;;-142.18;100.00;49934.84;5028663;27;20085;-73
2021/12/31 08:14:22;;;;;;;2.33;1.60;;;;;;;-142.18;100.00;49930.81;5028379;27;20065;-73
2021/12/31 08:16:49;;;;;;;3.92;1.70;;;;;;;-142.18;100.00;50296.34;5029459;27;20054;-73
2021/12/31 08:19:16;;;;;;;4.18;1.80;;;;;;;-142.18;100.00;50013.59;5037851;27;20186;-73
2021/12/31 08:21:43;;;;;;;4.60;1.50;;;;;;;-142.18;100.00;50066.13;5048482;27;20521;-74
2021/12/31 08:24:11;;;;;;;2.25;1.48;;;;;;;-142.18;100.00;50290.28;5038113;27;20054;-73
2021/12/31 08:26:39;;;;;;;2.53;1.80;;;;;;;-142.18;100.00;49985.34;5029053;27;20145;-73
2021/12/31 08:29:08;;;;;;;3.05;1.60;;;;;;;-142.18;100.00;49884.38;5011354;28;20560;-73
2021/12/31 08:31:35;;;;;;;2.92;1.50;;;;;;;-142.18;100.00;49910.63;5009712;28;20054;-74
2021/12/31 08:34:02;;;;;;;2.40;1.60;;;;;;;-142.18;100.00;49839.94;5010484;27;20065;-73
2021/12/31 08:36:30;;;;;;;1.75;1.50;;;;;;;-142.18;100.00;49678.38;5009804;28;20394;-73
2021/12/31 08:38:57;;;;;;;5.05;2.78;;;;;;;-142.18;100.00;49625.88;5010626;28;20054;-73
2021/12/31 08:41:23;;;;;;;4.15;2.90;;;;;;;-142.18;100.00;49454.25;5040224;27;20068;-73
2021/12/31 08:44:10;;;;;;;6.00;4.00;;;;;;;-142.18;100.00;49209.94;5047181;27;20745;-73
2021/12/31 08:46:40;;;;;;;5.10;3.42;;;;;;;-142.18;100.00;49193.78;5047897;27;20083;-74
2021/12/31 08:49:07;;;;;;;5.63;2.50;;;;;;;-142.18;100.00;49171.59;5048243;27;20113;-73
2021/12/31 08:51:36;;;;;;;2.90;1.80;;;;;;;-142.18;100.00;49109.00;5046675;27;20145;-73
2021/12/31 08:54:04;;;;;;;7.70;4.35;;;;;;;-142.18;100.00;49607.72;5111658;27;20410;-74
2021/12/31 08:56:30;;;;;;;5.15;2.53;;;;;;;-142.18;100.00;49450.22;5047905;27;20053;-73
2021/12/31 08:58:57;;;;;;;3.47;2.50;;;;;;;-142.18;100.00;49209.94;5115830;27;20072;-73
2021/12/31 09:01:25;;;;;;;6.38;1.70;;;;;;;-142.18;100.00;49298.78;5048233;27;20061;-73
2021/12/31 09:03:53;;;;;;;2.03;1.83;;;;;;;-142.18;100.00;49446.19;5046601;27;20516;-72
2021/12/31 09:06:20;;;;;;;2.90;1.80;;;;;;;-142.18;100.00;49339.16;5046916;27;20057;-72
2021/12/31 09:08:48;;;;;;;5.00;1.73;;;;;;;-142.18;100.00;49432.03;5047915;27;20064;-72
2021/12/31 09:11:16;;;;;;;6.95;4.28;;;;;;;-142.18;100.00;48933.34;5048310;27;20595;-73
2021/12/31 09:13:46;;;;;;;4.38;2.10;;;;;;;-142.18;100.00;48959.59;5030142;28;20093;-73
2021/12/31 09:16:14;;;;;;;2.85;1.52;;;;;;;-142.18;100.00;49038.31;5029649;28;20097;-74
2021/12/31 09:18:41;;;;;;;3.10;1.90;;;;;;;-142.18;100.00;48919.22;5020088;27;20142;-73
2021/12/31 09:21:10;;;;;;;2.85;1.30;;;;;;;-142.18;100.00;49282.63;5018102;28;20061;-73
2021/12/31 09:23:39;;;;;;;8.55;4.47;;;;;;;-142.18;100.00;49060.53;5024712;28;20069;-73
2021/12/31 09:26:06;;;;;;;6.97;2.90;;;;;;;-142.18;100.00;49224.06;5031846;27;20079;-73
2021/12/31 09:28:33;;;;;;;3.28;1.80;;;;;;;-142.18;100.00;49327.06;5045303;27;20111;-73
2021/12/31 09:31:05;;;;;;;2.83;2.20;;;;;;;-142.18;100.00;49327.06;5029314;27;20062;-73
2021/12/31 09:33:34;;;;;;;3.40;1.67;;;;;;;-142.18;100.00;49464.34;5046446;27;20062;-73
2021/12/31 09:36:01;;;;;;;5.45;2.55;;;;;;;-142.18;100.00;49423.97;5031463;27;20137;-73
2021/12/31 09:38:28;;;;;;;4.60;2.00;;;;;;;-142.18;100.00;49470.41;5028555;27;20057;-73
2021/12/31 09:40:54;;;;;;;4.53;2.00;;;;;;;-142.18;100.00;49351.28;5029173;28;20061;-72
2021/12/31 09:43:21;;;;;;;4.10;2.20;;;;;;;-142.18;100.00;49258.41;5044295;27;20053;-72
2021/12/31 09:45:51;;;;;;;4.03;2.42;;;;;;;-142.18;100.00;49306.84;5028666;28;20057;-72
2021/12/31 09:48:22;;;;;;;5.72;3.90;;;;;;;-142.18;100.00;49177.63;5011572;28;20058;-72
2021/12/31 09:50:53;;;;;;;5.07;3.00;;;;;;;-142.18;100.00;49032.28;5026328;28;20466;-73
2021/12/31 09:53:22;;;;;;;6.68;3.90;;;;;;;-142.18;100.00;48987.84;5027032;27;20058;-72
2021/12/31 09:55:54;;;;;;;7.82;4.15;;;;;;;-142.18;100.00;49032.28;5026710;27;20084;-72
2021/12/31 09:58:23;;;;;;;5.05;3.45;;;;;;;-142.18;100.00;49034.28;5029267;27;20054;-73
2021/12/31 10:00:53;;;;;;;3.20;2.28;;;;;;;-142.18;100.00;48959.59;5026273;27;20062;-73
2021/12/31 10:03:28;;;;;;;6.95;4.22;;;;;;;-142.18;100.00;48832.41;5025685;27;20144;-73
2021/12/31 10:05:57;;;;;;;4.95;2.55;;;;;;;-142.18;100.00;48882.88;5026012;27;20057;-73
2021/12/31 10:08:29;;;;;;;4.25;2.80;;;;;;;-142.18;100.00;48806.16;5026178;28;20093;-71
2021/12/31 10:11:10;;;;;;;4.00;2.25;;;;;;;-142.18;100.00;48757.72;5025070;27;20065;-72
2021/12/31 10:13:42;;;;;;;3.05;2.45;;;;;;;-142.18;100.00;48636.56;5024879;28;20062;-72
2021/12/31 10:16:41;;;;;;;5.05;3.00;;;;;;;-142.18;100.00;48372.13;5009789;28;20061;-72
2021/12/31 10:19:19;;;;;;;3.67;1.70;;;;;;;-142.18;100.00;48749.63;5001243;27;20801;-72
2021/12/31 10:21:50;;;;;;;6.22;3.53;;;;;;;-142.18;100.00;48666.84;5046574;27;20156;-72
2021/12/31 10:24:20;;;;;;;3.08;2.42;;;;;;;-142.18;100.00;48551.78;5045918;27;20073;-72
2021/12/31 10:26:48;;;;;;;3.33;2.53;;;;;;;-142.18;100.00;48664.84;5029334;27;20053;-73
2021/12/31 10:29:15;;;;;;;2.78;1.80;;;;;;;-142.18;100.00;48814.22;5026924;27;20064;-73
2021/12/31 10:31:52;;;;;;;4.85;1.67;;;;;;;-142.18;100.00;48963.63;5045011;27;20069;-72
2021/12/31 10:34:36;;;;;;;4.63;1.90;;;;;;;-142.18;100.00;48971.69;5039155;27;20062;-72
2021/12/31 10:37:17;;;;;;;;;;;;;;;-142.18;100.00;48927.28;5007441;28;20140;-73
2021/12/31 10:39:53;;;;;;;2.25;1.45;;;;;;;-142.18;100.00;48866.72;5025157;28;19960;-73
2021/12/31 10:42:20;;;;;;;2.30;1.63;;;;;;;-142.18;100.00;49002.00;5008414;28;20119;-73
2021/12/31 10:44:54;;;;;;;3.15;1.23;;;;;;;-142.18;100.00;48923.25;5015579;28;20456;-72
2021/12/31 10:47:22;;;;;;;4.05;1.50;;;;;;;-142.18;100.00;48947.47;5046436;27;20061;-72
2021/12/31 10:50:04;;;;;;;3.13;1.80;;;;;;;-142.18;100.00;48882.88;5027891;27;20156;-73
2021/12/31 10:53:01;;;;;;;1.50;1.40;;;;;;;-142.18;100.00;48973.72;5027023;28;20062;-73
2021/12/31 10:55:30;;;;;;;3.22;1.80;;;;;;;-142.18;100.00;48999.97;5011122;28;20137;-73
2021/12/31 10:57:59;;;;;;;4.68;1.80;;;;;;;-142.18;100.00;48915.19;5026917;28;20053;-73
2021/12/31 11:00:30;;;;;;;1.40;1.30;;;;;;;-142.18;100.00;49028.22;5026576;27;20053;-73
2021/12/31 11:02:58;;;;;;;170.40;92.22;;;;;;;-142.18;100.00;49004.00;5012806;28;20897;-73
2021/12/31 11:05:26;;;;;;;42.95;22.98;;;;;;;-142.18;100.00;48955.56;5011525;28;20520;-72
2021/12/31 11:07:54;;;;;;;3.85;2.20;;;;;;;-142.18;100.00;48850.56;5046834;28;20057;-72
2021/12/31 11:10:39;;;;;;;198.07;100.47;;;;;;;-142.18;100.00;48969.69;5047960;28;20058;-73
2021/12/31 11:13:19;;;;;;;6.03;2.17;;;;;;;-142.18;100.00;48975.75;5049711;28;20509;-72
2021/12/31 11:15:49;;;;;;;237.68;122.15;;;;;;;-142.18;100.00;48971.69;5049531;28;20447;-72
2021/12/31 11:18:23;;;;;;;3.97;2.78;;;;;;;-142.18;100.00;48993.91;5050253;28;20122;-72
2021/12/31 11:21:10;;;;;;;10.55;5.22;;;;;;;-142.18;100.00;48987.84;5049446;28;20050;-72